createdAt,value
2022-08-19T00:00:51.234Z,19.50
2022-08-19T00:03:17.864Z,19.60
2022-08-19T00:05:44.484Z,19.50
2022-08-19T00:08:11.106Z,19.50
2022-08-19T00:10:37.700Z,19.60
2022-08-19T00:13:05.130Z,19.60
2022-08-19T00:15:31.926Z,19.60
2022-08-19T00:17:58.736Z,19.60
2022-08-19T00:20:25.468Z,19.60
2022-08-19T00:22:52.813Z,19.60
2022-08-19T00:25:30.322Z,19.60
2022-08-19T00:27:57.538Z,19.60
2022-08-19T00:30:24.734Z,19.60
2022-08-19T00:32:51.580Z,19.60
2022-08-19T00:35:18.337Z,19.60
2022-08-19T00:37:45.682Z,19.60
2022-08-19T00:40:13.322Z,19.60
2022-08-19T00:42:40.179Z,19.60
2022-08-19T00:45:15.112Z,19.70
2022-08-19T00:47:41.796Z,19.70
2022-08-19T00:50:09.291Z,19.70
2022-08-19T00:52:39.676Z,19.70
2022-08-19T00:55:08.945Z,19.70
2022-08-19T00:57:37.789Z,19.70
2022-08-19T01:00:07.673Z,19.70
2022-08-19T01:02:34.368Z,19.70
2022-08-19T01:05:02.525Z,19.80
2022-08-19T01:07:29.185Z,19.70
2022-08-19T01:10:02.708Z,19.70
2022-08-19T01:12:29.329Z,19.70
2022-08-19T01:14:56.016Z,19.70
2022-08-19T01:17:22.676Z,19.70
2022-08-19T01:19:49.294Z,19.70
2022-08-19T01:22:30.199Z,19.70
2022-08-19T01:24:59.621Z,19.70
2022-08-19T01:27:26.335Z,19.70
2022-08-19T01:29:53.012Z,19.70
2022-08-19T01:32:21.158Z,19.60
2022-08-19T01:35:03.267Z,19.70
2022-08-19T01:37:31.325Z,19.70
2022-08-19T01:39:58.321Z,19.70
2022-08-19T01:42:29.005Z,19.70
2022-08-19T01:44:57.422Z,19.70
2022-08-19T01:47:24.040Z,19.70
2022-08-19T01:49:50.677Z,19.70
2022-08-19T01:52:17.291Z,19.60
2022-08-19T01:54:43.913Z,19.60
2022-08-19T01:57:12.539Z,19.70
2022-08-19T01:59:39.167Z,19.50
2022-08-19T02:02:08.012Z,19.50
2022-08-19T02:04:35.116Z,19.50
2022-08-19T02:07:02.391Z,19.50
2022-08-19T02:09:29.021Z,19.40
2022-08-19T02:11:55.621Z,19.40
2022-08-19T02:14:22.242Z,19.40
2022-08-19T02:16:48.891Z,19.30
2022-08-19T02:19:15.500Z,19.20
2022-08-19T02:21:42.097Z,19.20
2022-08-19T02:24:08.721Z,19.10
2022-08-19T02:26:35.321Z,19.00
2022-08-19T02:29:02.017Z,19.00
2022-08-19T02:31:28.936Z,18.90
2022-08-19T02:33:56.922Z,18.90
2022-08-19T02:36:24.294Z,18.80
2022-08-19T02:38:54.912Z,18.80
2022-08-19T02:41:26.587Z,18.80
2022-08-19T02:44:26.584Z,18.70
2022-08-19T02:46:41.197Z,18.70
2022-08-19T02:49:08.419Z,18.60
2022-08-19T02:51:40.230Z,18.60
2022-08-19T02:54:07.369Z,18.60
2022-08-19T02:56:35.954Z,18.60
2022-08-19T02:59:02.761Z,18.60
2022-08-19T03:01:31.833Z,18.60
2022-08-19T03:04:00.071Z,18.60
2022-08-19T03:06:26.782Z,18.60
2022-08-19T03:08:53.476Z,18.60
2022-08-19T03:11:22.119Z,18.70
2022-08-19T03:13:51.642Z,18.70
2022-08-19T03:16:19.161Z,18.70
2022-08-19T03:18:45.897Z,18.70
2022-08-19T03:21:20.205Z,18.70
2022-08-19T03:23:46.872Z,18.60
2022-08-19T03:26:16.717Z,18.70
2022-08-19T03:28:50.948Z,18.60
2022-08-19T03:31:41.687Z,18.50
2022-08-19T03:34:08.157Z,18.50
2022-08-19T03:36:34.866Z,18.40
2022-08-19T03:39:01.753Z,18.40
2022-08-19T03:41:44.238Z,18.40
2022-08-19T03:44:16.791Z,18.30
2022-08-19T03:46:45.275Z,18.30
2022-08-19T03:49:13.944Z,18.40
2022-08-19T03:51:41.936Z,18.30
2022-08-19T03:54:10.156Z,18.30
2022-08-19T03:56:37.733Z,18.30
2022-08-19T03:59:04.523Z,18.30
2022-08-19T04:01:35.371Z,18.40
2022-08-19T04:04:02.438Z,18.40
2022-08-19T04:06:33.004Z,18.30
2022-08-19T04:09:00.236Z,18.30
2022-08-19T04:11:42.898Z,18.20
2022-08-19T04:14:15.283Z,18.30
2022-08-19T04:16:42.084Z,18.30
2022-08-19T04:19:08.780Z,18.40
2022-08-19T04:21:35.559Z,18.40
2022-08-19T04:24:03.787Z,18.40
2022-08-19T04:26:33.277Z,18.40
2022-08-19T04:29:06.537Z,18.40
2022-08-19T04:31:37.555Z,18.30
2022-08-19T04:34:06.446Z,18.30
2022-08-19T04:36:35.680Z,18.20
2022-08-19T04:39:09.104Z,18.20
2022-08-19T04:41:54.620Z,18.20
2022-08-19T04:44:21.798Z,18.20
2022-08-19T04:46:51.177Z,18.20
2022-08-19T04:49:20.264Z,18.10
2022-08-19T04:51:48.623Z,18.20
2022-08-19T04:54:34.766Z,18.10
2022-08-19T04:57:02.695Z,18.20
2022-08-19T04:59:29.458Z,18.20
2022-08-19T05:01:56.101Z,18.10
2022-08-19T05:04:22.693Z,18.10
2022-08-19T05:06:49.591Z,18.10
2022-08-19T05:09:16.735Z,18.20
2022-08-19T05:11:43.498Z,18.20
2022-08-19T05:14:10.580Z,18.30
2022-08-19T05:16:37.206Z,18.30
2022-08-19T05:19:22.128Z,18.30
2022-08-19T05:22:07.032Z,18.30
2022-08-19T05:24:44.046Z,18.40
2022-08-19T05:27:18.075Z,18.50
2022-08-19T05:29:44.745Z,18.50
2022-08-19T05:32:11.454Z,18.40
2022-08-19T05:34:39.076Z,18.40
2022-08-19T05:37:06.114Z,18.50
2022-08-19T05:39:34.036Z,18.60
2022-08-19T05:42:07.604Z,18.60
2022-08-19T05:44:36.305Z,18.70
2022-08-19T05:47:03.845Z,18.80
2022-08-19T05:49:31.567Z,18.90
2022-08-19T05:51:58.212Z,19.10
2022-08-19T05:54:25.244Z,19.30
2022-08-19T05:56:52.705Z,19.50
2022-08-19T05:59:22.206Z,19.60
2022-08-19T06:01:55.180Z,19.80
2022-08-19T06:04:21.744Z,20.00
2022-08-19T06:06:52.550Z,20.10
2022-08-19T06:09:19.576Z,20.20
2022-08-19T06:11:56.019Z,20.40
2022-08-19T06:14:27.892Z,20.60
2022-08-19T06:16:54.832Z,20.60
2022-08-19T06:19:23.084Z,20.70
2022-08-19T06:21:50.572Z,20.70
2022-08-19T06:24:19.613Z,20.70
2022-08-19T06:29:23.492Z,20.70
2022-08-19T06:31:52.251Z,20.60
2022-08-19T06:34:18.995Z,20.60
2022-08-19T06:36:47.845Z,20.70
2022-08-19T06:39:20.006Z,20.70
2022-08-19T06:41:52.451Z,20.80
2022-08-19T06:44:21.920Z,21.00
2022-08-19T06:46:53.569Z,21.10
2022-08-19T06:49:22.080Z,21.50
2022-08-19T06:51:49.302Z,21.90
2022-08-19T06:54:19.516Z,22.40
2022-08-19T06:56:46.771Z,23.10
2022-08-19T06:59:22.181Z,24.00
2022-08-19T07:01:51.585Z,24.90
2022-08-19T07:04:20.442Z,25.20
2022-08-19T07:06:55.000Z,25.70
2022-08-19T07:09:22.005Z,26.20
2022-08-19T07:11:50.128Z,26.50
2022-08-19T07:14:19.598Z,26.50
2022-08-19T07:16:47.823Z,26.90
2022-08-19T07:19:16.236Z,27.30
2022-08-19T07:21:46.688Z,27.70
2022-08-19T07:24:13.358Z,28.80
2022-08-19T07:26:42.188Z,29.70
2022-08-19T07:29:09.165Z,29.00
2022-08-19T07:31:38.718Z,29.10
2022-08-19T07:36:37.000Z,29.90
2022-08-19T07:39:06.687Z,30.50
2022-08-19T07:41:33.514Z,30.00
2022-08-19T07:44:04.370Z,30.50
2022-08-19T07:46:32.392Z,30.60
2022-08-19T07:48:59.136Z,29.90
2022-08-19T07:51:36.421Z,29.70
2022-08-19T07:54:03.837Z,29.60
2022-08-19T07:56:30.458Z,29.20
2022-08-19T08:01:28.974Z,29.60
2022-08-19T08:04:15.475Z,29.50
2022-08-19T08:07:00.465Z,29.90
2022-08-19T08:09:33.239Z,30.50
2022-08-19T08:19:28.509Z,30.10
2022-08-19T08:21:56.404Z,30.20
2022-08-19T08:24:23.049Z,30.30
2022-08-19T08:26:57.100Z,30.80
2022-08-19T08:29:24.628Z,31.40
2022-08-19T08:31:59.721Z,31.50
2022-08-19T08:34:26.844Z,31.70
2022-08-19T08:36:53.483Z,31.80
2022-08-19T08:39:20.857Z,31.40
2022-08-19T08:42:09.930Z,32.00
2022-08-19T08:45:04.220Z,33.00
2022-08-19T08:47:33.569Z,32.90
2022-08-19T08:50:01.316Z,32.80
2022-08-19T08:52:49.387Z,31.50
2022-08-19T08:57:55.591Z,30.40
2022-08-19T09:00:30.551Z,29.20
2022-08-19T09:02:58.327Z,29.00
2022-08-19T09:05:39.493Z,29.00
2022-08-19T09:08:29.719Z,28.70
2022-08-19T09:10:58.352Z,28.70
2022-08-19T09:13:42.286Z,29.60
2022-08-19T09:16:21.861Z,30.60
2022-08-19T09:19:06.544Z,31.50
2022-08-19T09:26:47.594Z,32.20
2022-08-19T10:50:12.117Z,33.60
2022-08-19T11:27:40.294Z,34.20
2022-08-19T11:45:18.871Z,33.40
2022-08-19T11:47:45.525Z,34.20
2022-08-19T12:00:00.723Z,33.00
2022-08-19T12:02:27.553Z,33.30
2022-08-19T12:04:54.717Z,33.60
2022-08-19T12:07:21.320Z,33.90
2022-08-19T12:09:48.601Z,34.00
2022-08-19T12:12:15.481Z,34.40
2022-08-19T12:14:42.365Z,34.40
2022-08-19T12:17:09.997Z,34.00
2022-08-19T12:19:38.017Z,33.20
2022-08-19T12:22:06.361Z,32.60
2022-08-19T12:24:33.305Z,32.60
2022-08-19T12:27:03.197Z,33.20
2022-08-19T12:29:30.323Z,33.50
2022-08-19T12:32:04.280Z,33.90
2022-08-19T12:34:32.181Z,34.10
2022-08-19T12:36:59.730Z,34.50
2022-08-19T12:39:26.710Z,34.50
2022-08-19T12:41:54.681Z,34.80
2022-08-19T12:44:29.194Z,35.00
2022-08-19T12:57:11.174Z,35.60
2022-08-19T12:59:38.240Z,34.50
2022-08-19T13:02:06.949Z,33.40
2022-08-19T13:09:29.791Z,33.00
2022-08-19T13:11:57.693Z,32.00
2022-08-19T13:14:24.294Z,31.50
2022-08-19T13:16:53.631Z,31.20
2022-08-19T13:23:01.270Z,30.90
2022-08-19T13:25:27.944Z,30.90
2022-08-19T13:27:56.028Z,30.70
2022-08-19T13:30:41.588Z,30.80
2022-08-19T13:33:17.379Z,30.70
2022-08-19T13:35:49.878Z,30.60
2022-08-19T13:38:21.360Z,30.60
2022-08-19T13:40:48.684Z,31.00
2022-08-19T13:43:22.398Z,31.40
2022-08-19T13:45:51.401Z,31.50
2022-08-19T13:48:19.189Z,31.30
2022-08-19T13:50:47.600Z,31.20
2022-08-19T13:53:14.286Z,30.70
2022-08-19T13:55:41.899Z,30.40
2022-08-19T13:58:08.706Z,30.20
2022-08-19T14:00:37.375Z,29.70
2022-08-19T15:25:05.464Z,29.60
2022-08-19T15:27:32.886Z,29.40
2022-08-19T15:30:01.147Z,29.40
2022-08-19T15:32:31.485Z,29.50
2022-08-19T15:34:58.094Z,29.60
2022-08-19T15:37:25.176Z,29.70
2022-08-19T15:39:51.876Z,29.60
2022-08-19T15:42:29.666Z,29.50
2022-08-19T15:45:00.237Z,29.40
2022-08-19T15:47:29.363Z,29.30
2022-08-19T15:50:07.129Z,29.40
2022-08-19T15:52:41.923Z,29.50
2022-08-19T15:55:32.764Z,29.40
2022-08-19T15:58:29.273Z,29.50
2022-08-19T16:01:17.811Z,29.80
2022-08-19T16:04:11.389Z,29.70
2022-08-19T16:06:49.881Z,29.40
2022-08-19T16:09:16.896Z,29.30
2022-08-19T16:11:46.325Z,29.20
2022-08-19T16:14:17.149Z,29.20
2022-08-19T16:16:46.548Z,28.90
2022-08-19T16:19:15.589Z,28.70
2022-08-19T16:21:44.246Z,28.70
2022-08-19T16:24:12.910Z,28.60
2022-08-19T16:26:40.187Z,28.60
2022-08-19T16:29:08.969Z,28.70
2022-08-19T16:31:41.312Z,28.70
2022-08-19T16:34:08.061Z,28.70
2022-08-19T16:36:34.678Z,28.70
2022-08-19T16:39:01.477Z,28.50
2022-08-19T16:41:28.475Z,28.50
2022-08-19T16:43:55.401Z,28.50
2022-08-19T16:46:22.646Z,28.40
2022-08-19T16:48:49.834Z,28.20
2022-08-19T16:51:16.627Z,28.20
2022-08-19T16:53:43.513Z,28.20
2022-08-19T16:56:10.790Z,28.10
2022-08-19T16:58:37.634Z,28.10
2022-08-19T17:01:06.853Z,27.90
2022-08-19T17:03:36.506Z,27.80
2022-08-19T17:06:04.587Z,27.70
2022-08-19T17:08:45.708Z,27.50
2022-08-19T17:11:18.498Z,27.50
2022-08-19T17:13:47.744Z,27.40
2022-08-19T17:16:15.725Z,27.30
2022-08-19T17:18:42.321Z,27.30
2022-08-19T17:21:08.956Z,27.30
2022-08-19T17:23:42.111Z,27.20
2022-08-19T17:26:16.798Z,27.10
2022-08-19T17:28:46.060Z,27.00
2022-08-19T17:31:12.695Z,26.90
2022-08-19T17:33:41.041Z,26.80
2022-08-19T17:36:08.737Z,26.80
2022-08-19T17:38:35.854Z,26.70
2022-08-19T17:41:05.871Z,26.60
2022-08-19T17:43:34.573Z,26.50
2022-08-19T17:46:04.269Z,26.50
2022-08-19T17:48:40.730Z,26.40
2022-08-19T17:51:33.760Z,26.40
2022-08-19T17:54:00.524Z,26.30
2022-08-19T17:56:28.638Z,26.20
2022-08-19T17:59:00.672Z,26.20
2022-08-19T18:01:30.732Z,26.10
2022-08-19T18:04:09.932Z,26.10
2022-08-19T18:06:36.673Z,26.00
2022-08-19T18:09:05.208Z,26.00
2022-08-19T18:11:32.149Z,25.90
2022-08-19T18:13:58.780Z,25.90
2022-08-19T18:16:25.478Z,25.80
2022-08-19T18:18:53.782Z,25.70
2022-08-19T18:21:20.890Z,25.70
2022-08-19T18:23:47.502Z,25.50
2022-08-19T18:26:14.156Z,25.50
2022-08-19T18:28:49.707Z,25.40
2022-08-19T18:31:17.105Z,25.30
2022-08-19T18:33:44.695Z,25.30
2022-08-19T18:36:11.505Z,25.20
2022-08-19T18:38:56.618Z,25.10
2022-08-19T18:41:41.997Z,25.10
2022-08-19T18:44:28.479Z,25.00
2022-08-19T18:47:14.055Z,24.90
2022-08-19T18:49:40.766Z,24.80
2022-08-19T18:52:07.493Z,24.70
2022-08-19T18:54:34.342Z,24.60
2022-08-19T18:57:01.068Z,24.50
2022-08-19T18:59:30.384Z,24.50
2022-08-19T19:01:57.965Z,24.50
2022-08-19T19:04:30.389Z,24.40
2022-08-19T19:06:57.918Z,24.50
2022-08-19T19:09:24.778Z,24.50
2022-08-19T19:11:56.398Z,24.50
2022-08-19T19:14:47.794Z,24.60
2022-08-19T19:17:13.811Z,24.60
2022-08-19T19:19:42.633Z,24.50
2022-08-19T19:22:14.031Z,24.50
2022-08-19T19:24:44.018Z,24.50
2022-08-19T19:27:12.425Z,24.40
2022-08-19T19:29:39.375Z,24.30
2022-08-19T19:32:20.015Z,24.30
2022-08-19T19:34:46.818Z,24.30
2022-08-19T19:37:13.502Z,24.20
2022-08-19T19:39:46.032Z,24.20
2022-08-19T19:42:20.595Z,24.00
2022-08-19T19:44:48.786Z,24.00
2022-08-19T19:47:16.036Z,24.00
2022-08-19T19:50:03.868Z,23.90
2022-08-19T19:52:29.628Z,23.80
2022-08-19T19:54:56.805Z,23.80
2022-08-19T19:57:23.750Z,23.70
2022-08-19T19:59:51.320Z,23.60
2022-08-19T20:02:18.337Z,23.50
2022-08-19T20:04:45.255Z,23.40
2022-08-19T20:07:11.917Z,23.30
2022-08-19T20:09:58.368Z,23.20
2022-08-19T20:12:25.209Z,23.10
2022-08-19T20:14:53.049Z,23.00
2022-08-19T20:17:20.530Z,22.90
2022-08-19T20:19:48.038Z,22.80
2022-08-19T20:22:15.443Z,22.70
2022-08-19T20:24:42.674Z,22.60
2022-08-19T20:27:10.609Z,22.50
2022-08-19T20:29:41.501Z,22.40
2022-08-19T20:32:09.595Z,22.30
2022-08-19T20:34:37.160Z,22.30
2022-08-19T20:37:03.974Z,22.20
2022-08-19T20:39:30.731Z,22.10
2022-08-19T20:41:57.447Z,22.10
2022-08-19T20:44:25.336Z,22.00
2022-08-19T20:46:55.391Z,22.00
2022-08-19T20:49:27.207Z,21.90
2022-08-19T20:51:55.366Z,21.90
2022-08-19T20:54:22.047Z,21.90
2022-08-19T20:56:48.725Z,21.80
2022-08-19T20:59:15.420Z,21.80
2022-08-19T21:01:42.348Z,21.70
2022-08-19T21:04:08.995Z,21.70
2022-08-19T21:06:35.818Z,21.60
2022-08-19T21:09:02.477Z,21.60
2022-08-19T21:11:29.342Z,21.60
2022-08-19T21:13:56.907Z,21.60
2022-08-19T21:16:23.564Z,21.50
2022-08-19T21:18:50.271Z,21.40
2022-08-19T21:21:17.174Z,21.40
2022-08-19T21:23:44.165Z,21.30
2022-08-19T21:26:10.987Z,21.20
2022-08-19T21:28:37.662Z,21.20
2022-08-19T21:31:05.570Z,21.10
2022-08-19T21:33:33.105Z,21.10
2022-08-19T21:36:00.108Z,21.00
2022-08-19T21:38:27.071Z,21.00
2022-08-19T21:40:53.744Z,20.90
2022-08-19T21:43:20.460Z,20.80
2022-08-19T21:45:47.571Z,20.70
2022-08-19T21:48:15.011Z,20.70
2022-08-19T21:50:42.663Z,20.60
2022-08-19T21:53:13.989Z,20.50
2022-08-19T21:55:44.805Z,20.50
2022-08-19T21:58:12.294Z,20.50
2022-08-19T22:00:39.850Z,20.40
2022-08-19T22:03:06.555Z,20.30
2022-08-19T22:05:33.828Z,20.20
2022-08-19T22:08:02.483Z,20.20
2022-08-19T22:10:31.079Z,20.10
2022-08-19T22:12:57.739Z,20.10
2022-08-19T22:15:26.128Z,20.00
2022-08-19T22:17:53.156Z,19.90
2022-08-19T22:20:22.061Z,19.80
2022-08-19T22:22:51.404Z,19.70
2022-08-19T22:25:32.571Z,19.60
2022-08-19T22:28:00.699Z,19.50
2022-08-19T22:30:33.181Z,19.40
2022-08-19T22:33:02.116Z,19.30
2022-08-19T22:35:31.948Z,19.30
2022-08-19T22:37:59.093Z,19.20
2022-08-19T22:40:26.988Z,19.10
2022-08-19T22:43:02.031Z,19.00
2022-08-19T22:45:28.830Z,18.90
2022-08-19T22:47:55.623Z,18.90
2022-08-19T22:50:22.633Z,18.80
2022-08-19T22:52:52.246Z,18.80
2022-08-19T22:55:19.370Z,18.80
2022-08-19T22:57:46.022Z,18.80
2022-08-19T23:00:13.645Z,18.80
2022-08-19T23:02:52.177Z,18.80
2022-08-19T23:05:21.964Z,18.80
2022-08-19T23:07:52.131Z,18.80
2022-08-19T23:10:27.621Z,18.80
2022-08-19T23:12:55.350Z,18.80
2022-08-19T23:15:24.221Z,18.80
2022-08-19T23:17:54.182Z,18.80
2022-08-19T23:20:21.536Z,18.90
2022-08-19T23:22:50.476Z,18.90
2022-08-19T23:25:19.567Z,19.00
2022-08-19T23:28:04.835Z,19.00
2022-08-19T23:30:31.932Z,19.00
2022-08-19T23:33:01.850Z,19.00
2022-08-19T23:35:32.682Z,18.90
2022-08-19T23:38:00.962Z,18.90
2022-08-19T23:40:27.802Z,18.90
2022-08-19T23:42:54.689Z,18.80
2022-08-19T23:45:23.660Z,18.90
2022-08-19T23:47:50.738Z,18.90
2022-08-19T23:50:17.519Z,18.90
2022-08-19T23:52:55.202Z,18.90
2022-08-19T23:55:24.452Z,18.80
2022-08-19T23:57:51.206Z,18.60
